createdAt,value
2023-10-14T00:02:23.036Z,19.23
2023-10-14T00:04:56.742Z,19.22
2023-10-14T00:07:26.741Z,19.15
2023-10-14T00:09:58.211Z,19.09
2023-10-14T00:12:29.708Z,18.97
2023-10-14T00:15:06.126Z,19.09
2023-10-14T00:17:43.341Z,19.09
2023-10-14T00:20:21.901Z,19.30
2023-10-14T00:22:49.238Z,19.03
2023-10-14T00:25:36.065Z,18.94
2023-10-14T00:28:14.108Z,18.86
2023-10-14T00:31:00.530Z,19.25
2023-10-14T00:33:29.676Z,19.07
2023-10-14T00:36:00.684Z,19.10
2023-10-14T00:38:47.149Z,18.92
2023-10-14T00:41:37.589Z,19.03
2023-10-14T00:44:09.619Z,19.11
2023-10-14T00:46:56.799Z,19.24
2023-10-14T00:49:43.943Z,19.33
2023-10-14T00:52:31.423Z,19.29
2023-10-14T00:54:58.416Z,19.33
2023-10-14T00:57:55.478Z,19.43
2023-10-14T01:00:39.896Z,19.41
2023-10-14T01:03:16.042Z,19.42
2023-10-14T01:05:46.643Z,19.34
2023-10-14T01:08:13.387Z,19.59
2023-10-14T01:10:40.483Z,19.43
2023-10-14T01:13:15.087Z,19.50
2023-10-14T01:15:47.180Z,19.43
2023-10-14T01:18:15.478Z,19.34
2023-10-14T01:20:43.680Z,19.30
2023-10-14T01:23:15.266Z,19.33
2023-10-14T01:25:48.332Z,19.25
2023-10-14T01:28:21.743Z,19.18
2023-10-14T01:31:32.355Z,19.20
2023-10-14T01:34:01.593Z,19.30
2023-10-14T01:36:33.212Z,19.29
2023-10-14T01:39:10.319Z,19.56
2023-10-14T01:41:36.792Z,19.36
2023-10-14T01:44:10.926Z,19.42
2023-10-14T01:46:40.837Z,19.26
2023-10-14T01:49:18.237Z,19.36
2023-10-14T01:51:47.704Z,19.25
2023-10-14T01:54:14.237Z,19.25
2023-10-14T01:56:41.236Z,19.35
2023-10-14T01:59:08.855Z,19.21
2023-10-14T02:01:37.607Z,19.13
2023-10-14T02:04:05.018Z,19.12
2023-10-14T02:06:32.013Z,19.11
2023-10-14T02:09:02.202Z,19.16
2023-10-14T02:11:34.361Z,19.13
2023-10-14T02:14:08.213Z,19.06
2023-10-14T02:16:42.753Z,19.11
2023-10-14T02:19:37.455Z,19.08
2023-10-14T02:22:09.076Z,19.10
2023-10-14T02:24:35.496Z,19.00
2023-10-14T02:27:11.659Z,19.01
2023-10-14T02:29:42.996Z,19.00
2023-10-14T02:32:12.794Z,18.97
2023-10-14T02:34:46.302Z,18.82
2023-10-14T02:37:16.399Z,18.80
2023-10-14T02:39:49.117Z,18.73
2023-10-14T02:42:16.398Z,18.77
2023-10-14T02:44:48.368Z,18.63
2023-10-14T02:47:15.510Z,18.55
2023-10-14T02:49:42.918Z,18.52
2023-10-14T02:52:14.184Z,18.53
2023-10-14T02:54:45.879Z,18.41
2023-10-14T02:57:14.303Z,18.48
2023-10-14T02:59:43.954Z,18.30
2023-10-14T03:02:10.861Z,18.25
2023-10-14T03:04:49.456Z,18.19
2023-10-14T03:07:43.376Z,18.12
2023-10-14T03:10:25.188Z,18.18
2023-10-14T03:12:52.047Z,18.08
2023-10-14T03:15:22.141Z,18.02
2023-10-14T03:17:57.730Z,17.96
2023-10-14T03:20:28.419Z,17.95
2023-10-14T03:22:55.577Z,16.70
2023-10-14T03:25:24.328Z,15.85
2023-10-14T03:28:00.068Z,15.53
2023-10-14T03:30:28.105Z,15.50
2023-10-14T03:32:56.034Z,15.35
2023-10-14T03:35:24.660Z,15.03
2023-10-14T03:37:55.141Z,14.98
2023-10-14T03:40:52.412Z,14.83
2023-10-14T03:43:20.777Z,14.81
2023-10-14T03:46:06.112Z,14.49
2023-10-14T03:48:38.075Z,14.46
2023-10-14T03:51:04.534Z,14.31
2023-10-14T03:53:32.522Z,14.28
2023-10-14T03:56:00.916Z,14.40
2023-10-14T03:58:33.096Z,14.30
2023-10-14T04:01:05.626Z,14.28
2023-10-14T04:03:41.609Z,14.26
2023-10-14T04:06:15.357Z,14.26
2023-10-14T04:08:48.894Z,14.07
2023-10-14T04:11:36.681Z,14.11
2023-10-14T04:14:04.086Z,14.10
2023-10-14T04:16:47.169Z,14.13
2023-10-14T04:19:28.300Z,14.10
2023-10-14T04:22:15.971Z,14.06
2023-10-14T04:24:42.602Z,14.09
2023-10-14T04:27:18.625Z,14.10
2023-10-14T04:29:59.546Z,14.03
2023-10-14T04:32:28.617Z,14.03
2023-10-14T04:34:57.544Z,13.96
2023-10-14T04:37:28.130Z,13.94
2023-10-14T04:39:59.966Z,13.87
2023-10-14T04:42:36.878Z,13.80
2023-10-14T04:45:05.227Z,13.56
2023-10-14T04:47:38.122Z,13.55
2023-10-14T04:50:11.791Z,13.50
2023-10-14T04:52:39.689Z,13.41
2023-10-14T04:55:24.573Z,13.23
2023-10-14T04:58:09.729Z,13.22
2023-10-14T05:00:43.756Z,13.12
2023-10-14T05:03:14.654Z,13.17
2023-10-14T05:05:47.414Z,12.87
2023-10-14T05:08:17.441Z,12.10
2023-10-14T05:10:45.300Z,11.92
2023-10-14T05:13:13.535Z,11.75
2023-10-14T05:15:44.431Z,11.78
2023-10-14T05:18:18.042Z,11.66
2023-10-14T05:20:54.548Z,11.63
2023-10-14T05:23:25.312Z,11.58
2023-10-14T05:25:57.831Z,11.55
2023-10-14T05:28:32.456Z,11.58
2023-10-14T05:31:01.662Z,11.57
2023-10-14T05:33:32.325Z,11.58
2023-10-14T05:35:58.744Z,11.62
2023-10-14T05:38:25.201Z,11.57
2023-10-14T05:40:57.086Z,11.69
2023-10-14T05:43:24.659Z,11.71
2023-10-14T05:45:54.747Z,11.75
2023-10-14T05:48:31.709Z,11.70
2023-10-14T05:50:58.424Z,11.61
2023-10-14T05:53:27.969Z,11.73
2023-10-14T05:56:10.766Z,11.83
2023-10-14T05:58:38.981Z,11.88
2023-10-14T06:01:12.897Z,11.83
2023-10-14T06:03:40.033Z,11.85
2023-10-14T06:06:10.955Z,11.96
2023-10-14T06:08:38.321Z,11.94
2023-10-14T06:11:06.569Z,11.90
2023-10-14T06:13:34.274Z,11.97
2023-10-14T06:16:01.902Z,11.97
2023-10-14T06:18:30.855Z,11.97
2023-10-14T06:20:58.957Z,12.04
2023-10-14T06:23:28.269Z,12.05
2023-10-14T06:25:55.834Z,11.96
2023-10-14T06:28:23.000Z,12.02
2023-10-14T06:30:49.827Z,11.94
2023-10-14T06:33:16.998Z,11.92
2023-10-14T06:35:43.681Z,11.99
2023-10-14T06:38:19.038Z,12.08
2023-10-14T06:40:53.739Z,12.18
2023-10-14T06:43:21.647Z,12.06
2023-10-14T06:45:52.371Z,11.99
2023-10-14T06:48:19.195Z,11.96
2023-10-14T06:50:48.312Z,11.91
2023-10-14T06:53:16.756Z,11.96
2023-10-14T06:55:43.531Z,11.91
2023-10-14T06:58:20.018Z,11.92
2023-10-14T07:00:46.765Z,11.94
2023-10-14T07:03:15.944Z,11.97
2023-10-14T07:05:58.014Z,12.00
2023-10-14T07:08:26.241Z,12.00
2023-10-14T07:10:53.741Z,11.97
2023-10-14T07:13:22.554Z,11.92
2023-10-14T07:15:50.838Z,11.93
2023-10-14T07:18:29.814Z,11.77
2023-10-14T07:21:04.157Z,12.00
2023-10-14T07:23:35.423Z,11.99
2023-10-14T07:26:13.060Z,12.00
2023-10-14T07:28:44.699Z,12.02
2023-10-14T07:31:12.948Z,11.93
2023-10-14T07:33:40.639Z,11.97
2023-10-14T07:36:07.900Z,11.91
2023-10-14T07:38:36.326Z,11.97
2023-10-14T07:41:04.163Z,11.86
2023-10-14T07:43:30.849Z,11.78
2023-10-14T07:45:59.731Z,11.87
2023-10-14T07:48:27.595Z,11.83
2023-10-14T07:50:57.354Z,11.81
2023-10-14T07:53:24.391Z,11.79
2023-10-14T07:55:52.242Z,11.76
2023-10-14T07:58:30.194Z,11.80
2023-10-14T08:00:57.228Z,11.79
2023-10-14T08:03:28.435Z,11.78
2023-10-14T08:06:00.583Z,11.86
2023-10-14T08:08:32.310Z,11.95
2023-10-14T08:11:00.175Z,12.14
2023-10-14T08:13:27.507Z,12.29
2023-10-14T08:15:56.917Z,12.39
2023-10-14T08:18:24.927Z,12.44
2023-10-14T08:20:55.601Z,12.54
2023-10-14T08:23:27.247Z,12.57
2023-10-14T08:25:58.082Z,12.52
2023-10-14T08:28:25.827Z,12.43
2023-10-14T08:30:52.612Z,12.46
2023-10-14T08:33:21.521Z,12.40
2023-10-14T08:35:49.522Z,12.33
2023-10-14T08:38:20.511Z,12.40
2023-10-14T08:40:50.656Z,12.31
2023-10-14T08:43:26.992Z,12.09
2023-10-14T08:45:57.583Z,12.12
2023-10-14T08:48:27.939Z,12.10
2023-10-14T08:50:57.696Z,12.14
2023-10-14T08:53:25.900Z,12.19
2023-10-14T08:55:53.525Z,12.29
2023-10-14T08:58:24.172Z,12.33
2023-10-14T09:00:55.799Z,12.38
2023-10-14T09:03:25.612Z,12.52
2023-10-14T09:05:52.427Z,12.61
2023-10-14T09:08:23.058Z,12.68
2023-10-14T09:10:53.936Z,12.68
2023-10-14T09:13:23.629Z,12.73
2023-10-14T09:15:51.851Z,12.84
2023-10-14T09:18:22.884Z,12.74
2023-10-14T09:20:56.982Z,12.74
2023-10-14T09:23:28.402Z,12.78
2023-10-14T09:25:59.558Z,12.81
2023-10-14T09:28:34.133Z,12.68
2023-10-14T09:31:03.438Z,12.70
2023-10-14T09:33:35.330Z,12.73
2023-10-14T09:36:19.779Z,12.85
2023-10-14T09:38:55.868Z,13.04
2023-10-14T09:41:23.661Z,13.01
2023-10-14T09:43:51.291Z,13.38
2023-10-14T09:46:21.451Z,13.24
2023-10-14T09:48:49.326Z,13.24
2023-10-14T09:51:17.817Z,13.24
2023-10-14T09:53:54.327Z,13.07
2023-10-14T09:56:32.787Z,12.95
2023-10-14T09:59:04.801Z,13.06
2023-10-14T10:01:31.823Z,13.33
2023-10-14T10:04:04.597Z,13.34
2023-10-14T10:07:05.360Z,13.30
2023-10-14T10:09:46.132Z,13.09
2023-10-14T10:12:13.474Z,13.35
2023-10-14T10:14:43.873Z,13.42
2023-10-14T10:17:15.979Z,13.04
2023-10-14T10:20:11.635Z,12.99
2023-10-14T10:22:53.165Z,13.18
2023-10-14T10:25:22.976Z,13.31
2023-10-14T10:27:56.285Z,13.54
2023-10-14T10:30:24.017Z,13.69
2023-10-14T10:32:51.834Z,13.77
2023-10-14T10:35:21.715Z,13.63
2023-10-14T10:37:53.646Z,13.65
2023-10-14T10:40:27.068Z,14.23
2023-10-14T10:42:57.610Z,14.17
2023-10-14T10:45:32.594Z,14.51
2023-10-14T10:48:06.798Z,14.86
2023-10-14T10:50:38.547Z,15.11
2023-10-14T10:53:08.273Z,15.18
2023-10-14T10:55:37.471Z,14.93
2023-10-14T10:58:05.955Z,15.41
2023-10-14T11:00:33.993Z,15.18
2023-10-14T11:03:03.816Z,15.23
2023-10-14T11:05:34.328Z,15.08
2023-10-14T11:08:05.158Z,14.80
2023-10-14T11:10:35.227Z,14.62
2023-10-14T11:13:02.301Z,14.19
2023-10-14T11:15:33.084Z,14.01
2023-10-14T11:18:01.839Z,13.84
2023-10-14T11:20:37.584Z,13.82
2023-10-14T11:23:06.310Z,13.84
2023-10-14T11:25:37.773Z,13.43
2023-10-14T11:28:06.835Z,13.94
2023-10-14T11:30:33.745Z,13.94
2023-10-14T11:33:00.357Z,14.46
2023-10-14T11:35:31.152Z,14.94
2023-10-14T11:38:01.904Z,16.04
2023-10-14T11:40:38.845Z,17.03
2023-10-14T11:43:12.344Z,17.44
2023-10-14T11:45:46.206Z,18.21
2023-10-14T11:48:34.545Z,17.66
2023-10-14T11:51:03.528Z,17.82
2023-10-14T11:53:33.349Z,18.00
2023-10-14T11:56:04.287Z,17.14
2023-10-14T11:58:33.571Z,17.07
2023-10-14T12:01:00.569Z,17.37
2023-10-14T12:03:28.188Z,15.84
2023-10-14T12:06:00.557Z,17.21
2023-10-14T12:08:28.586Z,17.70
2023-10-14T12:10:57.870Z,16.16
2023-10-14T12:13:37.688Z,15.12
2023-10-14T12:16:12.470Z,14.30
2023-10-14T12:18:39.103Z,14.00
2023-10-14T12:21:05.719Z,14.61
2023-10-14T12:23:35.063Z,14.83
2023-10-14T12:26:02.969Z,15.54
2023-10-14T12:28:34.661Z,16.01
2023-10-14T12:31:08.041Z,16.39
2023-10-14T12:33:39.876Z,16.57
2023-10-14T12:36:10.328Z,16.16
2023-10-14T12:38:39.516Z,16.23
2023-10-14T12:41:09.425Z,15.28
2023-10-14T12:43:43.005Z,16.16
2023-10-14T12:46:21.082Z,16.30
2023-10-14T12:48:51.953Z,16.87
2023-10-14T12:51:26.599Z,16.84
2023-10-14T12:53:58.812Z,16.73
2023-10-14T12:56:27.692Z,16.29
2023-10-14T12:58:58.054Z,15.89
2023-10-14T13:01:24.830Z,16.29
2023-10-14T13:03:57.852Z,16.41
2023-10-14T13:06:28.145Z,15.77
2023-10-14T13:08:59.847Z,15.16
2023-10-14T13:11:27.414Z,14.72
2023-10-14T13:13:53.948Z,14.35
2023-10-14T13:16:21.609Z,14.22
2023-10-14T13:18:49.306Z,14.00
2023-10-14T13:21:18.149Z,13.96
2023-10-14T13:23:45.421Z,13.82
2023-10-14T13:26:12.181Z,13.84
2023-10-14T13:28:38.686Z,13.54
2023-10-14T13:31:05.892Z,13.65
2023-10-14T13:33:32.493Z,13.88
2023-10-14T13:35:58.931Z,14.89
2023-10-14T13:38:25.513Z,15.03
2023-10-14T13:40:52.131Z,15.29
2023-10-14T13:43:18.772Z,15.70
2023-10-14T13:45:45.499Z,15.89
2023-10-14T13:48:15.108Z,15.92
2023-10-14T13:50:42.789Z,15.81
2023-10-14T13:53:10.833Z,15.96
2023-10-14T13:55:40.905Z,16.18
2023-10-14T13:58:07.950Z,16.33
2023-10-14T14:00:37.372Z,16.48
2023-10-14T14:03:06.443Z,16.33
2023-10-14T14:05:34.401Z,16.08
2023-10-14T14:08:01.762Z,16.43
2023-10-14T14:10:28.233Z,16.57
2023-10-14T14:12:55.360Z,16.56
2023-10-14T14:15:24.096Z,16.67
2023-10-14T14:17:50.640Z,16.83
2023-10-14T14:20:17.569Z,16.41
2023-10-14T14:22:45.560Z,16.09
2023-10-14T14:25:15.214Z,16.26
2023-10-14T14:27:46.028Z,16.11
2023-10-14T14:30:14.198Z,15.82
2023-10-14T14:32:42.663Z,16.04
2023-10-14T14:35:10.369Z,15.54
2023-10-14T14:37:38.562Z,14.91
2023-10-14T14:40:15.537Z,14.35
2023-10-14T14:42:42.481Z,14.33
2023-10-14T14:45:13.706Z,14.35
2023-10-14T14:47:41.028Z,14.15
2023-10-14T14:50:09.262Z,14.04
2023-10-14T14:52:36.796Z,14.02
2023-10-14T14:55:05.381Z,13.79
2023-10-14T14:57:39.658Z,13.75
2023-10-14T15:00:15.264Z,13.78
2023-10-14T15:02:44.048Z,13.46
2023-10-14T15:05:16.024Z,13.52
2023-10-14T15:07:42.980Z,13.61
2023-10-14T15:10:11.151Z,13.57
2023-10-14T15:12:38.038Z,13.48
2023-10-14T15:15:06.647Z,13.47
2023-10-14T15:17:33.474Z,13.37
2023-10-14T15:20:00.125Z,13.24
2023-10-14T15:22:26.643Z,13.26
2023-10-14T15:24:53.105Z,13.15
2023-10-14T15:27:21.945Z,13.08
2023-10-14T15:29:49.816Z,13.10
2023-10-14T15:32:18.194Z,13.17
2023-10-14T15:34:50.971Z,13.14
2023-10-14T15:37:17.538Z,13.03
2023-10-14T15:39:44.130Z,12.73
2023-10-14T15:42:10.585Z,12.64
2023-10-14T15:44:37.348Z,12.66
2023-10-14T15:47:06.201Z,12.64
2023-10-14T15:49:37.514Z,12.59
2023-10-14T15:52:04.810Z,12.55
2023-10-14T15:54:31.343Z,12.47
2023-10-14T15:56:57.736Z,12.49
2023-10-14T15:59:24.386Z,12.41
2023-10-14T16:01:51.124Z,12.43
2023-10-14T16:04:17.779Z,12.42
2023-10-14T16:06:44.497Z,12.22
2023-10-14T16:09:11.060Z,12.36
2023-10-14T16:11:37.701Z,12.24
2023-10-14T16:14:04.716Z,12.31
2023-10-14T16:16:32.018Z,12.24
2023-10-14T16:18:58.649Z,12.20
2023-10-14T16:21:25.303Z,12.16
2023-10-14T16:23:52.065Z,12.13
2023-10-14T16:26:19.639Z,12.09
2023-10-14T16:28:49.661Z,12.08
2023-10-14T16:31:18.144Z,11.87
2023-10-14T16:33:46.210Z,11.68
2023-10-14T16:36:17.209Z,11.65
2023-10-14T16:38:44.769Z,11.68
2023-10-14T16:41:11.261Z,11.79
2023-10-14T16:43:37.793Z,11.65
2023-10-14T16:46:09.198Z,11.63
2023-10-14T16:48:35.738Z,11.75
2023-10-14T16:51:06.046Z,11.65
2023-10-14T16:53:32.457Z,11.60
2023-10-14T16:55:58.946Z,11.51
2023-10-14T16:58:25.882Z,11.23
2023-10-14T17:00:55.762Z,11.29
2023-10-14T17:03:26.313Z,11.05
2023-10-14T17:05:55.973Z,10.86
2023-10-14T17:08:24.188Z,10.74
2023-10-14T17:10:51.502Z,10.85
2023-10-14T17:13:18.193Z,10.86
2023-10-14T17:15:45.182Z,10.81
2023-10-14T17:18:12.510Z,10.69
2023-10-14T17:20:42.603Z,10.52
2023-10-14T17:23:14.442Z,10.45
2023-10-14T17:25:41.344Z,10.62
2023-10-14T17:28:12.833Z,10.62
2023-10-14T17:30:41.382Z,10.64
2023-10-14T17:33:12.795Z,10.38
2023-10-14T17:35:42.592Z,10.35
2023-10-14T17:38:09.264Z,10.24
2023-10-14T17:40:42.023Z,10.15
2023-10-14T17:43:11.718Z,10.24
2023-10-14T17:45:40.413Z,10.28
2023-10-14T17:48:07.771Z,10.25
2023-10-14T17:50:36.145Z,10.36
2023-10-14T17:53:10.139Z,10.39
2023-10-14T17:55:37.978Z,10.33
2023-10-14T17:58:05.203Z,10.53
2023-10-14T18:00:32.416Z,10.71
2023-10-14T18:03:06.175Z,10.81
2023-10-14T18:05:33.075Z,10.71
2023-10-14T18:07:59.721Z,10.74
2023-10-14T18:10:29.643Z,10.77
2023-10-14T18:13:00.232Z,10.76
2023-10-14T18:15:30.396Z,10.78
2023-10-14T18:17:57.076Z,10.74
2023-10-14T18:20:27.182Z,10.62
2023-10-14T18:22:55.754Z,10.61
2023-10-14T18:25:25.547Z,10.56
2023-10-14T18:27:52.948Z,10.49
2023-10-14T18:30:22.032Z,10.45
2023-10-14T18:32:56.293Z,10.43
2023-10-14T18:35:28.496Z,10.43
2023-10-14T18:37:56.785Z,10.44
2023-10-14T18:40:28.580Z,10.47
2023-10-14T18:42:57.043Z,10.48
2023-10-14T18:45:24.371Z,10.50
2023-10-14T18:47:55.290Z,10.49
2023-10-14T18:50:30.311Z,10.44
2023-10-14T18:52:59.642Z,10.54
2023-10-14T18:55:30.135Z,10.48
2023-10-14T18:58:05.936Z,10.47
2023-10-14T19:00:45.755Z,10.42
2023-10-14T19:03:13.154Z,10.50
2023-10-14T19:05:39.831Z,10.47
2023-10-14T19:08:08.686Z,10.47
2023-10-14T19:10:40.500Z,10.55
2023-10-14T19:13:08.636Z,10.44
2023-10-14T19:15:37.243Z,10.42
2023-10-14T19:18:05.826Z,10.49
2023-10-14T19:20:34.961Z,10.31
2023-10-14T19:23:07.601Z,10.46
2023-10-14T19:25:38.188Z,10.34
2023-10-14T19:28:10.258Z,10.32
2023-10-14T19:30:38.616Z,10.28
2023-10-14T19:33:05.269Z,10.38
2023-10-14T19:35:32.557Z,10.32
2023-10-14T19:37:59.306Z,10.29
2023-10-14T19:40:26.038Z,10.20
2023-10-14T19:42:55.060Z,10.16
2023-10-14T19:45:22.314Z,10.13
2023-10-14T19:47:49.060Z,10.11
2023-10-14T19:50:17.633Z,10.11
2023-10-14T19:52:48.023Z,10.08
2023-10-14T19:55:25.634Z,10.02
2023-10-14T19:58:02.749Z,10.02
2023-10-14T20:00:32.017Z,9.93
2023-10-14T20:03:03.253Z,9.90
2023-10-14T20:05:40.777Z,9.90
2023-10-14T20:08:12.694Z,9.90
2023-10-14T20:10:42.364Z,9.97
2023-10-14T20:13:11.332Z,9.96
2023-10-14T20:15:38.569Z,9.86
2023-10-14T20:18:17.542Z,9.98
2023-10-14T20:20:44.491Z,9.94
2023-10-14T20:23:13.060Z,9.96
2023-10-14T20:25:43.803Z,9.95
2023-10-14T20:28:17.087Z,9.95
2023-10-14T20:30:45.228Z,9.87
2023-10-14T20:33:12.073Z,9.88
2023-10-14T20:35:42.364Z,9.90
2023-10-14T20:38:12.500Z,9.84
2023-10-14T20:40:44.608Z,9.85
2023-10-14T20:43:11.984Z,9.88
2023-10-14T20:45:41.029Z,9.81
2023-10-14T20:48:08.158Z,9.83
2023-10-14T20:50:36.456Z,9.81
2023-10-14T20:53:06.573Z,9.68
2023-10-14T20:55:34.461Z,9.64
2023-10-14T20:58:03.032Z,9.56
2023-10-14T21:00:38.049Z,9.48
2023-10-14T21:03:10.197Z,9.45
2023-10-14T21:05:39.749Z,9.51
2023-10-14T21:08:19.812Z,9.39
2023-10-14T21:10:48.719Z,9.31
2023-10-14T21:13:19.932Z,9.25
2023-10-14T21:15:50.134Z,9.06
2023-10-14T21:18:19.638Z,8.72
2023-10-14T21:20:50.091Z,8.46
2023-10-14T21:23:18.174Z,8.35
2023-10-14T21:25:45.547Z,8.29
2023-10-14T21:28:15.562Z,8.24
2023-10-14T21:30:42.614Z,8.36
2023-10-14T21:33:09.408Z,8.46
2023-10-14T21:35:37.392Z,8.47
2023-10-14T21:38:05.012Z,8.38
2023-10-14T21:40:32.293Z,8.42
2023-10-14T21:42:59.896Z,8.17
2023-10-14T21:45:35.641Z,8.06
2023-10-14T21:48:03.953Z,7.98
2023-10-14T21:50:32.454Z,8.17
2023-10-14T21:53:01.815Z,8.23
2023-10-14T21:55:28.720Z,7.88
2023-10-14T21:58:00.089Z,7.80
2023-10-14T22:00:37.775Z,7.69
2023-10-14T22:03:08.421Z,7.60
2023-10-14T22:05:37.280Z,7.54
2023-10-14T22:08:06.243Z,7.57
2023-10-14T22:10:34.098Z,7.58
2023-10-14T22:13:00.711Z,7.53
2023-10-14T22:15:30.124Z,7.48
2023-10-14T22:18:01.119Z,7.48
2023-10-14T22:20:33.711Z,7.46
2023-10-14T22:23:02.163Z,7.48
2023-10-14T22:25:35.584Z,7.33
2023-10-14T22:28:13.048Z,7.39
2023-10-14T22:30:40.496Z,7.39
2023-10-14T22:33:07.833Z,7.19
2023-10-14T22:35:38.183Z,7.16
2023-10-14T22:38:06.660Z,7.10
2023-10-14T22:40:34.612Z,7.10
2023-10-14T22:43:03.022Z,7.09
2023-10-14T22:45:29.593Z,7.21
2023-10-14T22:47:59.937Z,7.14
2023-10-14T22:50:26.706Z,7.19
2023-10-14T22:52:56.568Z,7.26
2023-10-14T22:55:26.354Z,7.24
2023-10-14T22:57:56.770Z,7.07
2023-10-14T23:00:26.670Z,7.03
2023-10-14T23:02:56.684Z,7.02
2023-10-14T23:05:31.651Z,6.85
2023-10-14T23:08:01.499Z,6.82
2023-10-14T23:10:32.252Z,6.84
2023-10-14T23:12:59.942Z,6.78
2023-10-14T23:15:30.454Z,6.83
2023-10-14T23:17:59.428Z,6.83
2023-10-14T23:20:28.557Z,6.88
2023-10-14T23:23:00.831Z,6.89
2023-10-14T23:25:28.553Z,6.80
2023-10-14T23:27:56.897Z,6.83
2023-10-14T23:30:24.513Z,6.86
2023-10-14T23:32:56.937Z,6.75
2023-10-14T23:35:24.623Z,6.78
2023-10-14T23:37:59.195Z,6.80
2023-10-14T23:40:27.324Z,6.87
2023-10-14T23:43:03.484Z,6.96
2023-10-14T23:45:33.381Z,6.79
2023-10-14T23:48:02.821Z,6.65
2023-10-14T23:50:29.675Z,6.66
2023-10-14T23:52:56.233Z,6.54
2023-10-14T23:55:25.527Z,6.52
2023-10-14T23:57:53.260Z,6.55
